Time;durP1;ratioP1;P1;durP2;ratioP2;P2;SDS_P1;SDS_P2;PMS_P1;PMS_P2;Temp;Humidity;BMP_temperature;BMP_pressure;BME280_temperature;BME280_humidity;BME280_pressure;Samples;Min_cycle;Max_cycle;Signal;HPM_P1;HPM_P2
2022/07/21 00:00:40;;;;;;;16.73;10.63;;;21.90;99.90;;;;;;5070004;28;20520;-93
2022/07/21 00:03:06;;;;;;;15.93;10.82;;;21.90;99.90;;;;;;5070584;28;20036;-93
2022/07/21 00:05:32;;;;;;;13.77;10.93;;;21.90;99.90;;;;;;5070172;28;20043;-92
2022/07/21 00:07:58;;;;;;;17.17;11.32;;;21.80;99.90;;;;;;5070250;28;20067;-93
2022/07/21 00:10:25;;;;;;;15.20;11.30;;;21.80;99.90;;;;;;5069664;28;20040;-93
2022/07/21 00:12:52;;;;;;;16.83;11.27;;;21.70;99.90;;;;;;5070451;28;20080;-93
2022/07/21 00:15:19;;;;;;;16.95;10.60;;;21.70;99.90;;;;;;5070157;28;20086;-93
2022/07/21 00:17:45;;;;;;;16.13;11.68;;;21.70;99.90;;;;;;5070323;28;20140;-93
2022/07/21 00:20:12;;;;;;;17.25;12.07;;;21.70;99.90;;;;;;5069965;28;20143;-92
2022/07/21 00:22:38;;;;;;;18.45;11.40;;;21.60;99.90;;;;;;5070108;28;20119;-93
2022/07/21 00:25:05;;;;;;;15.27;11.27;;;21.60;99.90;;;;;;5071376;28;20037;-91
2022/07/21 00:27:31;;;;;;;16.13;11.40;;;21.60;99.90;;;;;;5073847;28;20127;-92
2022/07/21 00:29:57;;;;;;;16.17;12.23;;;21.50;99.90;;;;;;5073888;28;20115;-93
2022/07/21 00:32:22;;;;;;;15.52;12.10;;;21.50;99.90;;;;;;5073972;28;20083;-93
2022/07/21 00:34:48;;;;;;;17.02;12.20;;;21.50;99.90;;;;;;5075219;28;20036;-93
2022/07/21 00:37:14;;;;;;;15.27;12.68;;;21.40;99.90;;;;;;5073777;28;20505;-93
2022/07/21 00:39:39;;;;;;;16.25;12.45;;;21.40;99.90;;;;;;5073257;28;20162;-92
2022/07/21 00:42:05;;;;;;;18.55;13.63;;;21.40;99.90;;;;;;5090967;28;20106;-93
2022/07/21 00:44:31;;;;;;;16.75;12.48;;;21.40;99.90;;;;;;5073169;28;20413;-93
2022/07/21 00:46:57;;;;;;;19.45;13.13;;;21.40;99.90;;;;;;5075049;28;20041;-92
2022/07/21 00:49:24;;;;;;;17.35;13.73;;;21.30;99.90;;;;;;5073165;28;20303;-92
2022/07/21 00:51:52;;;;;;;16.70;13.50;;;21.30;99.90;;;;;;5073549;28;20048;-92
2022/07/21 00:54:19;;;;;;;20.08;14.45;;;21.30;99.90;;;;;;5073506;28;20044;-93
2022/07/21 00:56:45;;;;;;;15.05;13.25;;;21.30;99.90;;;;;;5074004;28;20048;-93
2022/07/21 00:59:12;;;;;;;17.92;13.75;;;21.30;99.90;;;;;;5073264;28;20044;-93
2022/07/21 01:01:38;;;;;;;18.90;13.70;;;21.30;99.90;;;;;;5073157;28;20037;-92
2022/07/21 01:04:04;;;;;;;17.70;13.98;;;21.30;99.90;;;;;;5073381;28;20032;-93
2022/07/21 01:06:30;;;;;;;16.63;13.48;;;21.30;99.90;;;;;;5073225;28;20402;-93
2022/07/21 01:08:56;;;;;;;18.00;13.60;;;21.30;99.90;;;;;;5072768;28;20028;-93
2022/07/21 01:11:24;;;;;;;18.88;14.45;;;21.30;99.90;;;;;;5073420;28;20123;-93
2022/07/21 01:13:51;;;;;;;20.05;14.57;;;21.30;99.90;;;;;;5073140;28;20082;-93
2022/07/21 01:16:17;;;;;;;20.10;15.20;;;21.30;99.90;;;;;;5073308;28;20085;-92
2022/07/21 01:18:43;;;;;;;15.90;13.27;;;21.30;99.90;;;;;;5072975;28;20119;-93
2022/07/21 01:21:36;;;;;;;17.83;13.07;;;21.30;99.90;;;;;;5072881;28;20059;-93
2022/07/21 01:24:02;;;;;;;;;;;21.40;99.90;;;;;;5073390;28;20115;-94
2022/07/21 01:26:29;;;;;;;20.23;15.18;;;21.20;99.90;;;;;;5056203;28;20019;-94
2022/07/21 01:28:56;;;;;;;16.95;14.10;;;21.20;99.90;;;;;;5072791;28;20047;-94
2022/07/21 01:31:23;;;;;;;17.90;14.82;;;21.20;99.90;;;;;;5072489;28;20040;-94
2022/07/21 01:33:49;;;;;;;17.05;13.80;;;21.20;99.90;;;;;;5072568;28;20041;-94
2022/07/21 01:36:15;;;;;;;17.45;14.27;;;21.20;99.90;;;;;;5072561;28;20095;-94
2022/07/21 01:41:31;;;;;;;17.67;14.68;;;21.10;99.90;;;;;;5089178;28;20490;-94
2022/07/21 01:44:02;;;;;;;17.35;14.40;;;21.10;99.90;;;;;;5072512;28;20040;-93
2022/07/21 01:46:30;;;;;;;18.48;15.25;;;21.10;99.90;;;;;;5072034;28;20067;-93
2022/07/21 01:48:56;;;;;;;17.80;14.55;;;21.00;99.90;;;;;;5072449;28;20166;-93
2022/07/21 01:51:22;;;;;;;20.58;15.13;;;21.00;99.90;;;;;;5089290;28;20115;-93
2022/07/21 01:53:48;;;;;;;17.70;14.32;;;20.90;99.90;;;;;;5072457;28;20052;-93
2022/07/21 01:56:14;;;;;;;16.20;13.88;;;20.80;99.90;;;;;;5072306;28;20045;-93
2022/07/21 01:58:39;;;;;;;17.83;13.93;;;20.80;99.90;;;;;;5072408;28;20059;-93
2022/07/21 02:01:05;;;;;;;16.40;14.55;;;20.80;99.90;;;;;;5071831;28;20075;-93
2022/07/21 02:03:31;;;;;;;14.20;12.27;;;20.80;99.90;;;;;;5072115;28;20040;-93
2022/07/21 02:06:04;;;;;;;14.95;13.35;;;20.80;99.90;;;;;;5072395;28;20028;-92
2022/07/21 02:08:31;;;;;;;14.23;11.95;;;20.80;99.90;;;;;;5072118;28;20037;-92
2022/07/21 02:10:57;;;;;;;13.18;11.75;;;20.70;99.90;;;;;;5071537;28;20444;-92
2022/07/21 02:13:23;;;;;;;15.45;13.38;;;20.80;99.90;;;;;;5072394;28;20547;-93
2022/07/21 02:15:49;;;;;;;14.90;13.02;;;20.80;99.90;;;;;;5072048;28;20044;-92
2022/07/21 02:18:15;;;;;;;14.85;12.88;;;20.80;99.90;;;;;;5072307;28;20045;-92
2022/07/21 02:20:40;;;;;;;15.70;13.93;;;20.70;99.90;;;;;;5071367;28;20490;-93
2022/07/21 02:23:06;;;;;;;14.55;11.85;;;20.70;99.90;;;;;;5071839;28;20040;-93
2022/07/21 02:25:32;;;;;;;14.68;12.20;;;20.60;99.90;;;;;;5071683;28;20028;-92
2022/07/21 02:27:57;;;;;;;15.32;13.25;;;20.60;99.90;;;;;;5071761;28;20584;-93
2022/07/21 02:30:23;;;;;;;16.67;14.30;;;20.60;99.90;;;;;;5071428;28;20417;-93
2022/07/21 02:32:49;;;;;;;16.23;14.00;;;20.50;99.90;;;;;;5071632;28;20072;-93
2022/07/21 02:35:14;;;;;;;17.75;15.05;;;20.50;99.90;;;;;;5071595;28;20047;-93
2022/07/21 02:37:40;;;;;;;17.00;14.00;;;20.50;99.90;;;;;;5071595;28;20040;-93
2022/07/21 02:40:07;;;;;;;16.25;13.60;;;20.50;99.90;;;;;;5070701;28;20040;-94
2022/07/21 02:42:32;;;;;;;15.48;12.98;;;20.50;99.90;;;;;;5071312;28;20042;-93
2022/07/21 02:44:58;;;;;;;13.82;11.40;;;20.50;99.90;;;;;;5070822;28;20119;-94
2022/07/21 02:47:23;;;;;;;14.27;11.52;;;20.50;99.90;;;;;;5070680;28;20123;-93
2022/07/21 02:49:49;;;;;;;13.73;11.95;;;20.50;99.90;;;;;;5070894;28;20075;-93
2022/07/21 02:52:14;;;;;;;15.25;12.02;;;20.50;99.90;;;;;;5071197;28;20068;-92
2022/07/21 02:54:40;;;;;;;14.07;11.05;;;20.50;99.90;;;;;;5071106;28;20044;-94
2022/07/21 02:57:06;;;;;;;12.88;11.10;;;20.50;99.90;;;;;;5071204;28;20048;-93
2022/07/21 02:59:31;;;;;;;13.32;11.93;;;20.40;99.90;;;;;;5070756;28;20058;-93
2022/07/21 03:01:57;;;;;;;15.70;11.68;;;20.40;99.90;;;;;;5071218;28;20036;-92
2022/07/21 03:04:22;;;;;;;16.38;12.68;;;20.40;99.90;;;;;;5102990;28;20043;-93
2022/07/21 03:06:48;;;;;;;15.10;11.55;;;20.40;99.90;;;;;;5076269;28;20041;-93
2022/07/21 03:09:14;;;;;;;12.60;11.05;;;20.40;99.90;;;;;;5073204;28;20146;-93
2022/07/21 03:11:40;;;;;;;14.98;12.82;;;20.40;99.90;;;;;;5072419;28;20387;-93
2022/07/21 03:14:05;;;;;;;13.73;11.60;;;20.50;99.90;;;;;;5072191;28;20127;-93
2022/07/21 03:16:31;;;;;;;14.55;12.70;;;20.40;99.90;;;;;;5072518;28;20045;-93
2022/07/21 03:18:57;;;;;;;13.10;11.50;;;20.40;99.90;;;;;;5071899;28;20540;-93
2022/07/21 03:21:22;;;;;;;13.82;11.75;;;20.40;99.90;;;;;;5071295;28;20123;-93
2022/07/21 03:23:48;;;;;;;15.88;12.80;;;20.40;99.90;;;;;;5072209;28;20037;-92
2022/07/21 03:26:14;;;;;;;16.40;14.07;;;20.40;99.90;;;;;;5071290;28;20068;-93
2022/07/21 03:28:41;;;;;;;15.00;12.82;;;20.50;99.90;;;;;;5071062;28;20090;-93
2022/07/21 03:31:06;;;;;;;15.20;12.85;;;20.50;99.90;;;;;;5070426;28;20033;-92
2022/07/21 03:33:35;;;;;;;17.35;15.55;;;20.50;99.90;;;;;;5071011;28;20404;-93
2022/07/21 03:36:01;;;;;;;17.42;15.48;;;20.40;99.90;;;;;;5070890;28;20131;-93
2022/07/21 03:38:27;;;;;;;19.08;15.75;;;20.40;99.90;;;;;;5070511;28;20064;-93
2022/07/21 03:40:52;;;;;;;16.88;15.07;;;20.40;99.90;;;;;;5071537;28;20053;-93
2022/07/21 03:43:18;;;;;;;16.77;14.85;;;20.40;99.90;;;;;;5070577;28;20045;-93
2022/07/21 03:45:44;;;;;;;18.27;16.38;;;20.50;99.90;;;;;;5070759;28;20086;-92
2022/07/21 03:48:11;;;;;;;18.45;16.35;;;20.50;99.90;;;;;;5070981;28;20166;-93
2022/07/21 03:50:39;;;;;;;20.77;18.67;;;20.50;99.90;;;;;;5070672;28;20093;-92
2022/07/21 03:53:05;;;;;;;21.48;19.15;;;20.50;99.90;;;;;;5070546;28;20052;-93
2022/07/21 03:55:30;;;;;;;21.80;19.70;;;20.50;99.90;;;;;;5070479;28;20079;-93
2022/07/21 03:58:02;;;;;;;22.38;20.17;;;20.50;99.90;;;;;;5070442;28;20453;-92
2022/07/21 04:00:35;;;;;;;22.00;19.90;;;20.50;99.90;;;;;;5073534;28;20047;-92
2022/07/21 04:03:01;;;;;;;25.80;23.23;;;20.50;99.90;;;;;;5074592;28;20044;-92
2022/07/21 04:05:28;;;;;;;25.65;23.13;;;20.40;99.90;;;;;;5074343;28;20072;-92
2022/07/21 04:07:55;;;;;;;25.02;22.73;;;20.40;99.90;;;;;;5074429;28;20036;-92
2022/07/21 04:10:31;;;;;;;27.45;24.85;;;20.40;99.90;;;;;;5073952;28;20041;-92
2022/07/21 04:12:59;;;;;;;28.25;25.55;;;20.40;99.90;;;;;;5074462;28;20044;-92
2022/07/21 04:15:24;;;;;;;27.88;25.20;;;20.30;99.90;;;;;;5057438;28;20076;-92
2022/07/21 04:17:50;;;;;;;26.98;24.48;;;20.30;99.90;;;;;;5074100;28;20083;-92
2022/07/21 04:20:16;;;;;;;25.65;23.23;;;20.30;99.90;;;;;;5074036;28;20058;-92
2022/07/21 04:22:44;;;;;;;25.27;22.88;;;20.30;99.90;;;;;;5074460;28;20647;-92
2022/07/21 04:25:09;;;;;;;25.83;23.23;;;20.30;99.90;;;;;;5074063;28;20068;-92
2022/07/21 04:27:36;;;;;;;25.52;22.98;;;20.20;99.90;;;;;;5074126;28;20079;-92
2022/07/21 04:30:04;;;;;;;25.35;22.85;;;20.20;99.90;;;;;;5073719;28;20052;-92
2022/07/21 04:32:29;;;;;;;24.90;22.40;;;20.20;99.90;;;;;;5074268;28;20044;-92
2022/07/21 04:34:55;;;;;;;25.73;23.10;;;20.20;99.90;;;;;;5073931;28;20409;-92
2022/07/21 04:37:21;;;;;;;25.75;23.30;;;20.20;99.90;;;;;;5074049;28;20040;-93
2022/07/21 04:39:47;;;;;;;24.58;22.35;;;20.20;99.90;;;;;;5073351;28;20146;-92
2022/07/21 04:42:13;;;;;;;24.85;22.55;;;20.20;99.90;;;;;;5073818;28;20037;-92
2022/07/21 04:44:39;;;;;;;24.75;22.45;;;20.20;99.90;;;;;;5073524;28;20033;-92
2022/07/21 04:47:04;;;;;;;26.05;23.48;;;20.20;99.90;;;;;;5073563;28;20044;-92
2022/07/21 04:49:30;;;;;;;25.98;23.50;;;20.20;99.90;;;;;;5073614;28;20068;-92
2022/07/21 04:51:55;;;;;;;25.05;22.73;;;20.20;99.90;;;;;;5073926;28;20037;-92
2022/07/21 04:54:21;;;;;;;25.15;22.83;;;20.30;99.90;;;;;;5073455;28;20083;-92
2022/07/21 04:56:47;;;;;;;26.80;24.10;;;20.30;99.90;;;;;;5073227;28;20132;-93
2022/07/21 04:59:12;;;;;;;25.27;22.92;;;20.30;99.90;;;;;;5073475;28;20044;-93
2022/07/21 05:01:39;;;;;;;27.20;24.70;;;20.20;99.90;;;;;;5073287;28;20506;-92
2022/07/21 05:04:05;;;;;;;29.70;26.80;;;20.20;99.90;;;;;;5073167;28;20041;-91
2022/07/21 05:06:31;;;;;;;27.30;24.70;;;20.30;99.90;;;;;;5073502;28;20037;-92
2022/07/21 05:08:57;;;;;;;30.80;27.90;;;20.20;99.90;;;;;;5072961;28;20432;-92
2022/07/21 05:11:23;;;;;;;30.55;27.75;;;20.20;99.90;;;;;;5072574;28;20538;-92
2022/07/21 05:13:48;;;;;;;29.98;27.05;;;20.20;99.90;;;;;;5073122;28;20033;-92
2022/07/21 05:16:14;;;;;;;30.40;27.58;;;20.20;99.90;;;;;;5074757;28;20448;-92
2022/07/21 05:18:39;;;;;;;28.42;25.73;;;20.20;99.90;;;;;;5089903;28;20072;-93
2022/07/21 05:21:05;;;;;;;28.42;25.55;;;20.20;99.90;;;;;;5072806;28;20040;-92
2022/07/21 05:23:31;;;;;;;26.08;23.70;;;20.20;99.90;;;;;;5073091;28;20567;-92
2022/07/21 05:25:56;;;;;;;27.60;25.00;;;20.20;99.90;;;;;;5072823;28;20570;-92
2022/07/21 05:28:22;;;;;;;26.27;23.83;;;20.20;99.90;;;;;;5072904;28;20409;-92
2022/07/21 05:30:47;;;;;;;24.77;22.40;;;20.20;99.90;;;;;;5074115;28;20048;-92
2022/07/21 05:33:13;;;;;;;25.02;22.73;;;20.20;99.90;;;;;;5072771;28;20049;-92
2022/07/21 05:35:39;;;;;;;23.42;21.38;;;20.20;99.90;;;;;;5072907;28;20124;-93
2022/07/21 05:38:05;;;;;;;24.02;21.73;;;20.20;99.90;;;;;;5072404;28;20040;-92
2022/07/21 05:40:31;;;;;;;25.33;22.90;;;20.20;99.90;;;;;;5072267;28;20048;-93
2022/07/21 05:42:56;;;;;;;24.85;22.45;;;20.20;99.90;;;;;;5072669;28;20410;-92
2022/07/21 05:45:22;;;;;;;24.92;22.55;;;20.20;99.90;;;;;;5072659;28;20036;-92
2022/07/21 05:47:47;;;;;;;26.05;23.45;;;20.20;99.90;;;;;;5072832;28;20496;-92
2022/07/21 05:50:13;;;;;;;24.13;21.75;;;20.30;99.90;;;;;;5072509;28;20432;-93
2022/07/21 05:52:39;;;;;;;25.38;22.98;;;20.30;99.90;;;;;;5073139;28;20478;-93
2022/07/21 05:55:06;;;;;;;26.52;24.13;;;20.40;99.90;;;;;;5072213;28;20076;-92
2022/07/21 05:57:32;;;;;;;25.50;23.02;;;20.40;99.90;;;;;;5072135;28;20537;-92
2022/07/21 05:59:58;;;;;;;26.75;24.05;;;20.40;99.90;;;;;;5072071;28;20048;-92
2022/07/21 06:02:24;;;;;;;27.08;24.48;;;20.40;99.90;;;;;;5072261;28;20041;-92
2022/07/21 06:04:50;;;;;;;27.92;25.33;;;20.40;99.90;;;;;;5071976;28;20041;-93
2022/07/21 06:07:16;;;;;;;26.80;24.30;;;20.40;99.90;;;;;;5088518;28;20066;-92
2022/07/21 06:09:41;;;;;;;26.85;24.33;;;20.30;99.90;;;;;;5092173;28;20039;-93
2022/07/21 06:12:07;;;;;;;27.27;24.67;;;20.30;99.90;;;;;;5092451;28;20432;-93
2022/07/21 06:14:32;;;;;;;26.45;24.05;;;20.20;99.90;;;;;;5092148;28;20036;-92
2022/07/21 06:16:58;;;;;;;28.02;25.38;;;20.20;99.90;;;;;;5092024;28;20028;-93
2022/07/21 06:19:24;;;;;;;28.45;25.65;;;20.20;99.90;;;;;;5091893;28;20100;-91
2022/07/21 06:21:49;;;;;;;28.70;26.10;;;20.20;99.90;;;;;;5074617;28;20468;-92
2022/07/21 06:24:15;;;;;;;27.60;25.15;;;20.20;99.90;;;;;;5091393;28;20036;-92
2022/07/21 06:26:41;;;;;;;28.88;26.17;;;20.20;99.90;;;;;;5092155;28;20501;-91
2022/07/21 06:29:07;;;;;;;29.85;26.85;;;20.20;99.90;;;;;;5092016;28;20122;-92
2022/07/21 06:31:33;;;;;;;30.42;27.73;;;20.20;99.90;;;;;;5091881;28;20130;-92
2022/07/21 06:33:59;;;;;;;29.83;27.08;;;20.20;99.90;;;;;;5091881;28;20051;-92
2022/07/21 06:36:24;;;;;;;31.58;28.63;;;20.20;99.90;;;;;;5091871;28;20052;-92
2022/07/21 06:38:50;;;;;;;32.13;29.08;;;20.10;99.90;;;;;;5092001;28;20055;-91
2022/07/21 06:41:16;;;;;;;32.58;29.58;;;20.10;99.90;;;;;;5091356;28;20122;-93
2022/07/21 06:43:41;;;;;;;31.70;28.80;;;20.10;99.90;;;;;;5091591;28;20047;-92
2022/07/21 06:46:07;;;;;;;32.17;29.33;;;20.10;99.90;;;;;;5091647;28;20457;-93
2022/07/21 06:48:32;;;;;;;30.58;27.92;;;20.10;99.90;;;;;;5091603;28;20036;-92
2022/07/21 06:50:58;;;;;;;33.10;30.05;;;20.20;99.90;;;;;;5090981;28;20421;-93
2022/07/21 06:53:24;;;;;;;31.80;28.83;;;20.20;99.90;;;;;;5091230;28;20044;-92
2022/07/21 06:55:54;;;;;;;30.92;28.00;;;20.30;99.90;;;;;;5091023;28;20039;-93
2022/07/21 06:58:22;;;;;;;32.25;29.30;;;20.30;99.90;;;;;;5091094;28;20046;-93
2022/07/21 07:00:49;;;;;;;31.63;28.55;;;20.30;99.90;;;;;;5091031;28;20044;-92
2022/07/21 07:03:16;;;;;;;31.70;28.67;;;20.40;99.90;;;;;;5091349;28;20514;-92
2022/07/21 07:05:43;;;;;;;32.17;29.27;;;20.40;99.90;;;;;;5091113;28;20420;-93
2022/07/21 07:08:09;;;;;;;32.05;29.05;;;20.40;99.90;;;;;;5091335;28;20036;-92
2022/07/21 07:10:35;;;;;;;32.78;29.77;;;20.50;99.90;;;;;;5090755;28;20044;-92
2022/07/21 07:13:01;;;;;;;32.67;29.80;;;20.50;99.90;;;;;;5090837;28;20234;-93
2022/07/21 07:15:27;;;;;;;35.30;32.15;;;20.60;99.90;;;;;;5092471;28;20082;-92
2022/07/21 07:17:54;;;;;;;34.13;31.02;;;20.60;99.90;;;;;;5107875;28;20036;-92
2022/07/21 07:20:20;;;;;;;33.95;30.95;;;20.70;99.90;;;;;;5090653;28;20449;-92
2022/07/21 07:22:45;;;;;;;34.53;31.42;;;20.70;99.90;;;;;;5107818;28;20085;-92
2022/07/21 07:25:11;;;;;;;33.72;30.83;;;20.70;99.90;;;;;;5073715;28;20404;-92
2022/07/21 07:27:36;;;;;;;34.38;31.27;;;20.70;99.90;;;;;;5074469;28;20055;-93
2022/07/21 07:30:03;;;;;;;36.63;33.58;;;20.60;99.90;;;;;;5090753;28;20035;-93
2022/07/21 07:32:29;;;;;;;36.10;32.80;;;20.60;99.90;;;;;;5091269;28;20063;-93
2022/07/21 07:34:54;;;;;;;36.88;33.58;;;20.60;99.90;;;;;;5090731;28;20039;-92
2022/07/21 07:37:20;;;;;;;36.92;33.60;;;20.60;99.90;;;;;;5090684;28;20043;-93
2022/07/21 07:39:46;;;;;;;37.22;33.92;;;20.60;99.90;;;;;;5091667;28;20036;-92
2022/07/21 07:42:11;;;;;;;36.97;33.67;;;20.60;99.90;;;;;;5090613;28;20075;-92
2022/07/21 07:44:37;;;;;;;36.45;33.15;;;20.60;99.90;;;;;;5090799;28;20051;-92
2022/07/21 07:47:03;;;;;;;35.35;32.33;;;20.70;99.90;;;;;;5090644;28;20041;-92
2022/07/21 07:49:30;;;;;;;35.22;32.03;;;20.80;99.90;;;;;;5090502;28;20043;-92
2022/07/21 07:51:56;;;;;;;36.03;32.72;;;20.90;99.90;;;;;;5090688;28;20399;-92
2022/07/21 07:54:21;;;;;;;35.28;32.22;;;21.00;99.90;;;;;;5090621;28;20100;-92
2022/07/21 07:56:47;;;;;;;33.45;30.45;;;21.00;99.90;;;;;;5107452;28;20035;-92
2022/07/21 07:59:13;;;;;;;32.65;29.83;;;21.00;99.90;;;;;;5091728;28;20043;-92
2022/07/21 08:01:38;;;;;;;33.13;30.17;;;21.00;99.90;;;;;;5090613;28;20040;-92
2022/07/21 08:04:04;;;;;;;33.10;30.20;;;21.00;99.90;;;;;;5073657;28;20123;-93
2022/07/21 08:06:30;;;;;;;32.70;29.88;;;21.10;99.90;;;;;;5091833;28;20036;-92
2022/07/21 08:08:55;;;;;;;31.98;29.15;;;21.10;99.90;;;;;;5091750;28;20546;-92
2022/07/21 08:11:21;;;;;;;31.80;28.90;;;21.10;99.90;;;;;;5089987;28;20451;-93
2022/07/21 08:13:46;;;;;;;33.85;30.65;;;21.20;99.90;;;;;;5090620;28;20044;-93
2022/07/21 08:16:15;;;;;;;31.75;28.83;;;21.20;99.90;;;;;;5090451;28;20044;-92
2022/07/21 08:18:41;;;;;;;30.20;27.48;;;21.20;99.90;;;;;;5090313;28;20560;-92
2022/07/21 08:21:07;;;;;;;32.08;29.15;;;21.20;99.90;;;;;;5089947;28;20048;-93
2022/07/21 08:23:32;;;;;;;31.52;28.63;;;21.20;99.90;;;;;;5090678;28;20040;-93
2022/07/21 08:25:58;;;;;;;31.58;28.83;;;21.20;99.90;;;;;;5090357;28;20043;-92
2022/07/21 08:28:24;;;;;;;32.10;29.10;;;21.20;99.90;;;;;;5090420;28;20047;-92
2022/07/21 08:30:49;;;;;;;29.40;26.73;;;21.20;99.90;;;;;;5073294;28;20047;-93
2022/07/21 08:33:15;;;;;;;32.53;29.58;;;21.20;99.90;;;;;;5090487;28;20036;-93
2022/07/21 08:35:41;;;;;;;29.38;26.85;;;21.20;99.90;;;;;;5090393;28;20051;-93
2022/07/21 08:38:08;;;;;;;30.60;27.73;;;21.10;99.90;;;;;;5090244;28;20509;-92
2022/07/21 08:40:37;;;;;;;31.08;28.35;;;21.10;99.90;;;;;;5089878;28;20040;-92
2022/07/21 08:43:04;;;;;;;30.00;27.30;;;21.10;99.90;;;;;;5090350;28;20036;-92
2022/07/21 08:45:30;;;;;;;30.15;27.45;;;21.10;99.90;;;;;;5107077;28;20036;-92
2022/07/21 08:47:57;;;;;;;30.13;27.35;;;21.10;99.90;;;;;;5093875;28;20498;-93
2022/07/21 08:50:25;;;;;;;30.02;27.17;;;21.10;99.90;;;;;;5110926;28;20126;-92
2022/07/21 08:52:50;;;;;;;28.80;26.10;;;21.10;99.90;;;;;;5094001;28;20506;-92
2022/07/21 08:55:16;;;;;;;28.52;25.83;;;21.10;99.90;;;;;;5094048;28;20127;-92
2022/07/21 08:57:42;;;;;;;27.30;24.75;;;21.10;99.90;;;;;;5093630;28;20516;-93
2022/07/21 09:00:09;;;;;;;28.00;25.40;;;21.10;99.90;;;;;;5093302;28;20040;-92
2022/07/21 09:02:37;;;;;;;29.77;27.00;;;21.30;99.90;;;;;;5094858;28;20055;-92
2022/07/21 09:05:05;;;;;;;29.02;26.42;;;21.50;99.90;;;;;;5093780;28;20378;-93
2022/07/21 09:07:47;;;;;;;28.70;25.90;;;21.50;99.90;;;;;;5093521;28;20402;-91
2022/07/21 09:10:13;;;;;;;29.13;26.55;;;21.70;99.90;;;;;;5093175;28;20040;-93
2022/07/21 09:12:53;;;;;;;28.48;25.83;;;21.80;99.90;;;;;;5093610;28;20131;-92
2022/07/21 09:15:22;;;;;;;28.95;25.95;;;21.90;99.90;;;;;;5093288;28;20516;-93
2022/07/21 09:18:15;;;;;;;29.00;26.15;;;22.00;99.90;;;;;;5094472;28;20503;-93
2022/07/21 09:20:50;;;;;;;28.08;25.42;;;22.00;99.90;;;;;;5085404;28;20139;-93
2022/07/21 09:23:18;;;;;;;29.20;26.40;;;22.10;99.90;;;;;;5093580;28;20044;-93
2022/07/21 09:25:48;;;;;;;29.25;26.45;;;22.10;99.90;;;;;;5110387;28;20093;-93
2022/07/21 09:28:20;;;;;;;28.80;25.90;;;22.10;99.90;;;;;;5110156;28;20043;-93
2022/07/21 09:31:01;;;;;;;28.15;25.48;;;22.10;99.90;;;;;;5092761;28;20055;-92
2022/07/21 09:33:44;;;;;;;28.67;25.77;;;22.00;99.90;;;;;;5110361;28;20043;-92
2022/07/21 09:36:13;;;;;;;29.10;26.27;;;22.00;99.90;;;;;;5093130;28;20044;-93
2022/07/21 09:38:44;;;;;;;29.05;26.27;;;21.90;99.90;;;;;;5092893;28;20066;-93
2022/07/21 09:41:14;;;;;;;29.08;26.17;;;21.90;99.90;;;;;;5109733;27;20078;-93
2022/07/21 09:43:43;;;;;;;30.13;27.17;;;21.90;99.90;;;;;;5092638;28;20032;-92
2022/07/21 09:46:13;;;;;;;28.65;25.95;;;21.90;99.90;;;;;;5092733;28;20093;-92
2022/07/21 09:48:40;;;;;;;31.75;28.65;;;21.80;99.90;;;;;;5093219;28;20555;-93
2022/07/21 09:51:25;;;;;;;32.05;28.98;;;21.80;99.90;;;;;;5109595;28;20054;-93
2022/07/21 09:53:56;;;;;;;32.42;29.33;;;21.70;99.90;;;;;;5109670;28;20077;-93
2022/07/21 09:56:24;;;;;;;34.28;30.80;;;21.70;99.90;;;;;;5109705;28;20044;-93
2022/07/21 09:58:51;;;;;;;35.22;31.65;;;21.60;99.90;;;;;;5092748;28;20036;-93
2022/07/21 10:01:17;;;;;;;35.53;32.00;;;21.60;99.90;;;;;;5108859;28;20047;-94
2022/07/21 10:03:45;;;;;;;36.13;32.65;;;21.50;99.90;;;;;;5092581;28;20032;-92
2022/07/21 10:06:11;;;;;;;37.17;33.42;;;21.50;99.90;;;;;;5092557;28;20040;-92
2022/07/21 10:08:37;;;;;;;36.72;33.10;;;21.40;99.90;;;;;;5092610;28;20079;-93
2022/07/21 10:11:04;;;;;;;39.35;35.45;;;21.40;99.90;;;;;;5092084;28;20489;-92
2022/07/21 10:13:30;;;;;;;37.15;33.55;;;21.50;99.90;;;;;;5109246;28;20036;-93
2022/07/21 10:15:58;;;;;;;38.08;34.25;;;21.40;99.90;;;;;;5109291;28;20090;-91
2022/07/21 10:18:29;;;;;;;39.08;35.33;;;21.50;99.90;;;;;;5092172;28;20404;-92
2022/07/21 10:21:01;;;;;;;39.55;35.75;;;21.60;99.90;;;;;;5091948;28;20083;-93
2022/07/21 10:23:42;;;;;;;41.20;37.17;;;21.60;99.90;;;;;;5092195;28;20032;-92
2022/07/21 10:26:09;;;;;;;39.25;35.40;;;21.70;99.90;;;;;;5091992;28;20071;-92
2022/07/21 10:28:35;;;;;;;39.45;35.42;;;21.80;99.90;;;;;;5092329;28;20401;-92
2022/07/21 10:31:19;;;;;;;40.55;36.40;;;21.90;99.90;;;;;;5091318;28;20126;-92
2022/07/21 10:33:45;;;;;;;38.28;34.55;;;21.90;99.90;;;;;;5091825;28;20560;-92
2022/07/21 10:36:34;;;;;;;34.35;31.02;;;22.00;99.90;;;;;;5092150;28;20136;-93
2022/07/21 10:39:06;;;;;;;32.47;29.05;;;22.00;99.90;;;;;;5108719;28;20148;-92
2022/07/21 10:41:42;;;;;;;31.80;28.60;;;22.10;99.90;;;;;;5091697;28;20127;-92
2022/07/21 10:44:32;;;;;;;32.50;29.20;;;22.20;99.90;;;;;;5091801;28;20123;-92
2022/07/21 10:47:04;;;;;;;32.85;29.60;;;22.30;99.90;;;;;;5091900;28;20093;-93
2022/07/21 10:49:50;;;;;;;33.17;29.95;;;22.40;99.90;;;;;;5091352;28;20039;-92
2022/07/21 10:52:34;;;;;;;28.42;25.63;;;22.50;99.90;;;;;;5091638;28;20046;-92
2022/07/21 10:55:28;;;;;;;32.58;29.35;;;22.70;99.90;;;;;;5091560;28;20036;-92
2022/07/21 10:58:23;;;;;;;34.28;30.65;;;22.80;99.90;;;;;;5091521;28;20040;-92
2022/07/21 11:00:54;;;;;;;31.48;28.30;;;22.80;99.90;;;;;;5049464;28;20061;-92
2022/07/21 11:03:31;;;;;;;31.30;28.30;;;22.80;99.90;;;;;;5050389;28;20036;-92
2022/07/21 11:06:05;;;;;;;31.77;28.50;;;22.90;99.90;;;;;;5033446;28;20172;-92
2022/07/21 11:08:39;;;;;;;30.92;27.77;;;22.90;99.90;;;;;;5032520;28;20059;-91
2022/07/21 11:11:18;;;;;;;35.05;31.73;;;22.90;99.90;;;;;;5032841;28;20052;-93
2022/07/21 11:13:59;;;;;;;32.85;29.73;;;22.90;99.90;;;;;;5033349;28;20151;-93
2022/07/21 11:16:40;;;;;;;33.45;30.27;;;23.00;99.90;;;;;;5049761;28;20040;-92
2022/07/21 11:19:06;;;;;;;33.45;30.25;;;23.10;99.90;;;;;;5032867;28;20057;-93
2022/07/21 11:21:31;;;;;;;36.28;32.70;;;23.30;99.90;;;;;;5033014;28;20542;-93
2022/07/21 11:23:57;;;;;;;36.30;33.00;;;23.40;99.90;;;;;;5032863;28;20091;-93
2022/07/21 11:26:26;;;;;;;35.50;32.10;;;23.40;99.90;;;;;;5033280;28;20391;-93
2022/07/21 11:29:06;;;;;;;34.13;30.85;;;23.30;99.90;;;;;;5032796;28;20051;-92
2022/07/21 11:31:45;;;;;;;32.95;29.77;;;23.20;99.90;;;;;;5033092;28;20514;-93
2022/07/21 11:34:11;;;;;;;29.60;26.83;;;23.10;99.90;;;;;;5033222;28;20045;-93
2022/07/21 11:36:37;;;;;;;29.45;26.35;;;23.00;99.90;;;;;;5036914;28;20044;-93
2022/07/21 11:39:08;;;;;;;28.98;26.10;;;22.80;99.90;;;;;;5091975;28;20050;-93
2022/07/21 11:41:36;;;;;;;27.80;25.30;;;22.70;99.90;;;;;;5090641;28;20044;-93
2022/07/21 11:44:06;;;;;;;29.50;26.70;;;22.70;99.90;;;;;;5098316;28;20131;-92
2022/07/21 11:46:45;;;;;;;28.02;25.42;;;22.60;99.90;;;;;;5067316;28;20594;-92
2022/07/21 11:49:10;;;;;;;26.73;24.23;;;22.50;99.90;;;;;;5096114;28;20036;-92
2022/07/21 11:51:36;;;;;;;28.02;25.30;;;22.50;99.90;;;;;;5080615;28;20445;-93
2022/07/21 11:54:02;;;;;;;27.45;24.63;;;22.50;99.90;;;;;;5080791;28;20036;-92
2022/07/21 11:56:27;;;;;;;26.50;24.00;;;22.50;99.90;;;;;;5078964;28;20569;-93
2022/07/21 11:59:09;;;;;;;26.88;24.10;;;22.50;99.90;;;;;;5081890;28;20463;-92
2022/07/21 12:01:55;;;;;;;25.67;23.17;;;22.50;99.90;;;;;;5081916;28;20042;-93
2022/07/21 12:04:34;;;;;;;26.50;23.70;;;22.50;99.90;;;;;;5080363;28;20040;-93
2022/07/21 12:07:01;;;;;;;21.98;19.42;;;22.50;99.90;;;;;;5097593;28;20405;-93
2022/07/21 12:09:27;;;;;;;13.55;12.15;;;22.50;99.90;;;;;;5078121;28;20104;-92
2022/07/21 12:11:53;;;;;;;21.60;19.08;;;22.50;99.90;;;;;;5112047;28;20047;-93
2022/07/21 12:14:19;;;;;;;21.67;19.58;;;22.50;99.90;;;;;;5094719;28;20029;-93
2022/07/21 12:16:52;;;;;;;24.15;21.75;;;22.50;99.90;;;;;;5094481;28;20035;-93
2022/07/21 12:19:19;;;;;;;24.52;21.95;;;22.50;99.90;;;;;;5080130;28;20024;-92
2022/07/21 12:21:51;;;;;;;20.55;18.35;;;22.50;99.90;;;;;;5089089;28;20032;-92
2022/07/21 12:24:18;;;;;;;19.73;17.40;;;22.50;99.90;;;;;;5080532;28;20044;-93
2022/07/21 12:26:45;;;;;;;15.95;12.93;;;22.50;99.90;;;;;;5067122;28;20086;-93
2022/07/21 12:29:30;;;;;;;13.70;11.43;;;22.40;99.90;;;;;;5058486;28;20512;-93
2022/07/21 12:32:15;;;;;;;13.20;10.93;;;22.30;99.90;;;;;;5075027;28;20040;-93
2022/07/21 12:34:54;;;;;;;14.27;12.65;;;22.20;99.90;;;;;;5080270;28;20036;-92